This is the latest recevied weather packets stored in our database for station/object KB1JDX. If no packets are shown the sender has not sent any weather packets the latest 10 day(s).
| Time | Temp. | Humidity | Pressure | Rain* | Wind** | Luminosity | Snow |
|---|---|---|---|---|---|---|---|
| 1777936835 | 16.11° C | 54% | 1009.2 hPa | 0 mm | 0 m/s | - | - |
| 1777936766 | 16.11° C | 54% | 1009.2 hPa | 0 mm | 0 m/s | - | - |
| 1777935634 | 17.22° C | 51% | 1009 hPa | 0 mm | 1.79 m/s, 165° | - | - |
| 1777934435 | 17.78° C | 48% | 1008.9 hPa | 0 mm | 0 m/s | - | - |
| 1777933235 | 17.78° C | 48% | 1008.9 hPa | 0 mm | 1.79 m/s, 209° | - | - |
| 1777933166 | 17.78° C | 48% | 1008.8 hPa | 0 mm | 0 m/s | - | - |
| 1777932035 | 18.33° C | 46% | 1008.7 hPa | 0 mm | 2.24 m/s, 180° | - | - |
| 1777930833 | 18.89° C | 44% | 1008.6 hPa | 0 mm | 0 m/s | - | - |
| 1777929633 | 19.44° C | 42% | 1008.5 hPa | 0 mm | 5.36 m/s, 220° | - | - |
| 1777929566 | 19.44° C | 42% | 1008.5 hPa | 0 mm | 3.13 m/s, 218° | - | - |
| 1777928433 | 19.44° C | 41% | 1008.4 hPa | 0 mm | 0 m/s | - | - |
| 1777927233 | 20° C | 40% | 1008.4 hPa | 0 mm | 2.24 m/s, 198° | - | - |
| 1777926033 | 20° C | 40% | 1008.3 hPa | 0 mm | 2.24 m/s, 165° | - | - |
| 1777925966 | 20° C | 40% | 1008.4 hPa | 0 mm | 0 m/s | - | - |
| 1777924833 | 20.56° C | 36% | 1008.3 hPa | 0 mm | 0 m/s | - | - |
| 1777923633 | 21.11° C | 35% | 1008.3 hPa | 0 mm | 0 m/s | - | - |
| 1777922433 | 20.56° C | 34% | 1008.3 hPa | 0 mm | 8.49 m/s, 224° | - | - |
| 1777922366 | 20.56° C | 35% | 1008.2 hPa | 0 mm | 4.92 m/s, 200° | - | - |
| 1777921233 | 20.56° C | 34% | 1008.4 hPa | 0 mm | 0 m/s | - | - |
| 1777920035 | 20.56° C | 33% | 1008.6 hPa | 0 mm | 0 m/s | - | - |
| 1777918835 | 20.56° C | 34% | 1008.9 hPa | 0 mm | 1.34 m/s, 220° | - | - |
| 1777918766 | 20.56° C | 34% | 1008.9 hPa | 0 mm | 2.24 m/s, 232° | - | - |
| 1777917634 | 20° C | 35% | 1009.1 hPa | 0 mm | 5.81 m/s, 230° | - | - |
| 1777916434 | 20° C | 35% | 1009.2 hPa | 0 mm | 0.89 m/s, 228° | - | - |
| 1777915233 | 20° C | 34% | 1009.1 hPa | 0 mm | 2.24 m/s, 237° | - | - |
* Rain latest hour (hover to see other rain measurements)
** Current wind speed in m/s (hover to see current wind gust speed)